Houghton County Memorial Airport Hancock US
ICAO: KCMX
IATA: CMX
Category: Medium
Scheduled Services: Yes

Elevation: 1095 ft
TransAlt. 18000 ft.

Airport Communications:
ASOS:125.675
MINNEAPOLIS CNTR:127.2
GREEN BAY RDO:122.525
CTAF/UNICOM:122.7

KCMX Zoom In..

If you have problems with the map follow the link
https://www.worldairports.se/pages/airport.php?
ICAO=KCMX

Runways:

(A) RW 07 length 5201 ft width 100 ft
---- / hdg 69

(B) RW 13 length 6500 ft width 150 ft
---- / hdg 133

(C) RW 25 length 5201 ft width 100 ft
---- / hdg 249

(D) RW 31 length 6500 ft width 150 ft
ILS 110.30 / hdg 313

Location; KCMX
Day. 18 / Time. 02.53 Zulu
* Altimeter: 30.30
* Temperature: -05° c. -23°f.
* Wind from: 120° Speed 13 kn.
Dewpoint: -09° c.
Visibility: 10 Statute Miles.
Clouds: Scattered 2100 ft.
Clouds: Overcast 9000 ft.

KCMX 180253Z AUTO 12013KT 10SM SCT021 OVC090 M05/M09 A3030 RMK AO2 SLP285 T10501089 56042


Wind From 120°
Speed 13 kn.

 
 
jpsmedia worldairports.se 2020   terms of use